sensor_id;sensor_type;location;lat;lon;timestamp;P1;durP1;ratioP1;P2;durP2;ratioP2
32138;SDS011;18644;48.700;9.210;2023-12-14T00:02:00;1.45;;;0.90;;
32138;SDS011;18644;48.700;9.210;2023-12-14T00:04:28;0.70;;;0.70;;
32138;SDS011;18644;48.700;9.210;2023-12-14T00:06:55;0.82;;;0.82;;
32138;SDS011;18644;48.700;9.210;2023-12-14T00:09:22;1.90;;;1.30;;
32138;SDS011;18644;48.700;9.210;2023-12-14T00:11:49;1.25;;;1.02;;
32138;SDS011;18644;48.700;9.210;2023-12-14T00:14:15;1.13;;;0.98;;
32138;SDS011;18644;48.700;9.210;2023-12-14T00:16:42;0.82;;;0.80;;
32138;SDS011;18644;48.700;9.210;2023-12-14T00:19:09;0.90;;;0.90;;
32138;SDS011;18644;48.700;9.210;2023-12-14T00:21:37;1.05;;;0.95;;
32138;SDS011;18644;48.700;9.210;2023-12-14T00:24:04;0.85;;;0.70;;
32138;SDS011;18644;48.700;9.210;2023-12-14T00:26:32;1.88;;;1.27;;
32138;SDS011;18644;48.700;9.210;2023-12-14T00:28:59;1.75;;;1.05;;
32138;SDS011;18644;48.700;9.210;2023-12-14T00:31:26;2.67;;;1.10;;
32138;SDS011;18644;48.700;9.210;2023-12-14T00:33:53;1.00;;;0.90;;
32138;SDS011;18644;48.700;9.210;2023-12-14T00:36:20;1.15;;;1.05;;
32138;SDS011;18644;48.700;9.210;2023-12-14T00:38:48;1.45;;;1.10;;
32138;SDS011;18644;48.700;9.210;2023-12-14T00:41:15;0.95;;;0.90;;
32138;SDS011;18644;48.700;9.210;2023-12-14T00:43:41;1.05;;;0.95;;
32138;SDS011;18644;48.700;9.210;2023-12-14T00:46:08;1.17;;;0.98;;
32138;SDS011;18644;48.700;9.210;2023-12-14T00:48:36;1.25;;;1.08;;
32138;SDS011;18644;48.700;9.210;2023-12-14T00:51:03;1.30;;;1.10;;
32138;SDS011;18644;48.700;9.210;2023-12-14T00:53:30;1.27;;;0.98;;
32138;SDS011;18644;48.700;9.210;2023-12-14T00:55:58;1.23;;;1.13;;
32138;SDS011;18644;48.700;9.210;2023-12-14T00:58:25;1.60;;;1.15;;
32138;SDS011;18644;48.700;9.210;2023-12-14T01:00:52;1.10;;;1.00;;
32138;SDS011;18644;48.700;9.210;2023-12-14T01:03:19;0.82;;;0.82;;
32138;SDS011;18644;48.700;9.210;2023-12-14T01:05:46;0.80;;;0.80;;
32138;SDS011;18644;48.700;9.210;2023-12-14T01:08:13;1.38;;;1.05;;
32138;SDS011;18644;48.700;9.210;2023-12-14T01:10:41;1.10;;;1.00;;
32138;SDS011;18644;48.700;9.210;2023-12-14T01:13:09;1.40;;;0.90;;
32138;SDS011;18644;48.700;9.210;2023-12-14T01:15:36;0.93;;;0.90;;
32138;SDS011;18644;48.700;9.210;2023-12-14T01:18:03;0.90;;;0.90;;
32138;SDS011;18644;48.700;9.210;2023-12-14T01:20:30;0.88;;;0.85;;
32138;SDS011;18644;48.700;9.210;2023-12-14T01:22:57;0.80;;;0.80;;
32138;SDS011;18644;48.700;9.210;2023-12-14T01:25:24;1.17;;;1.08;;
32138;SDS011;18644;48.700;9.210;2023-12-14T01:27:51;2.75;;;1.10;;
32138;SDS011;18644;48.700;9.210;2023-12-14T01:30:19;2.72;;;1.25;;
32138;SDS011;18644;48.700;9.210;2023-12-14T01:32:46;1.38;;;1.10;;
32138;SDS011;18644;48.700;9.210;2023-12-14T01:35:13;1.15;;;1.05;;
32138;SDS011;18644;48.700;9.210;2023-12-14T01:37:40;1.70;;;0.90;;
32138;SDS011;18644;48.700;9.210;2023-12-14T01:40:07;2.50;;;0.90;;
32138;SDS011;18644;48.700;9.210;2023-12-14T01:42:35;0.82;;;0.82;;
32138;SDS011;18644;48.700;9.210;2023-12-14T01:45:02;1.73;;;0.88;;
32138;SDS011;18644;48.700;9.210;2023-12-14T01:47:32;3.03;;;0.98;;
32138;SDS011;18644;48.700;9.210;2023-12-14T01:49:58;1.67;;;0.70;;
32138;SDS011;18644;48.700;9.210;2023-12-14T01:52:25;0.80;;;0.80;;
32138;SDS011;18644;48.700;9.210;2023-12-14T01:54:52;1.23;;;0.80;;
32138;SDS011;18644;48.700;9.210;2023-12-14T01:57:20;0.70;;;0.70;;
32138;SDS011;18644;48.700;9.210;2023-12-14T01:59:47;1.08;;;0.75;;
32138;SDS011;18644;48.700;9.210;2023-12-14T02:02:13;0.85;;;0.85;;
32138;SDS011;18644;48.700;9.210;2023-12-14T02:04:42;1.00;;;0.90;;
32138;SDS011;18644;48.700;9.210;2023-12-14T02:07:09;0.80;;;0.80;;
32138;SDS011;18644;48.700;9.210;2023-12-14T02:09:35;0.82;;;0.77;;
32138;SDS011;18644;48.700;9.210;2023-12-14T02:12:02;0.80;;;0.70;;
32138;SDS011;18644;48.700;9.210;2023-12-14T02:14:31;1.10;;;0.90;;
32138;SDS011;18644;48.700;9.210;2023-12-14T02:16:57;1.00;;;0.90;;
32138;SDS011;18644;48.700;9.210;2023-12-14T02:19:24;0.75;;;0.75;;
32138;SDS011;18644;48.700;9.210;2023-12-14T02:21:52;2.25;;;0.88;;
32138;SDS011;18644;48.700;9.210;2023-12-14T02:24:21;1.20;;;0.90;;
32138;SDS011;18644;48.700;9.210;2023-12-14T02:26:47;1.15;;;0.90;;
32138;SDS011;18644;48.700;9.210;2023-12-14T02:29:15;1.15;;;0.95;;
32138;SDS011;18644;48.700;9.210;2023-12-14T02:31:42;10.57;;;4.82;;
32138;SDS011;18644;48.700;9.210;2023-12-14T02:34:09;8.68;;;4.55;;
32138;SDS011;18644;48.700;9.210;2023-12-14T02:36:35;7.00;;;3.15;;
32138;SDS011;18644;48.700;9.210;2023-12-14T02:39:02;4.15;;;2.20;;
32138;SDS011;18644;48.700;9.210;2023-12-14T02:41:31;3.25;;;1.60;;
32138;SDS011;18644;48.700;9.210;2023-12-14T02:43:58;1.73;;;1.40;;
32138;SDS011;18644;48.700;9.210;2023-12-14T02:46:24;2.55;;;1.27;;
32138;SDS011;18644;48.700;9.210;2023-12-14T02:48:51;1.13;;;0.90;;
32138;SDS011;18644;48.700;9.210;2023-12-14T02:51:18;1.17;;;0.82;;
32138;SDS011;18644;48.700;9.210;2023-12-14T02:53:45;4.68;;;0.95;;
32138;SDS011;18644;48.700;9.210;2023-12-14T02:56:12;1.20;;;1.10;;
32138;SDS011;18644;48.700;9.210;2023-12-14T02:58:40;0.75;;;0.73;;
32138;SDS011;18644;48.700;9.210;2023-12-14T03:01:07;0.63;;;0.63;;
32138;SDS011;18644;48.700;9.210;2023-12-14T03:03:34;0.70;;;0.70;;
32138;SDS011;18644;48.700;9.210;2023-12-14T03:06:04;0.95;;;0.85;;
32138;SDS011;18644;48.700;9.210;2023-12-14T03:08:31;0.73;;;0.60;;
32138;SDS011;18644;48.700;9.210;2023-12-14T03:10:58;0.85;;;0.63;;
32138;SDS011;18644;48.700;9.210;2023-12-14T03:13:25;0.98;;;0.73;;
32138;SDS011;18644;48.700;9.210;2023-12-14T03:15:54;0.70;;;0.70;;
32138;SDS011;18644;48.700;9.210;2023-12-14T03:18:21;5.00;;;0.90;;
32138;SDS011;18644;48.700;9.210;2023-12-14T03:20:48;2.42;;;0.77;;
32138;SDS011;18644;48.700;9.210;2023-12-14T03:23:15;0.93;;;0.80;;
32138;SDS011;18644;48.700;9.210;2023-12-14T03:25:42;1.23;;;1.02;;
32138;SDS011;18644;48.700;9.210;2023-12-14T03:28:09;0.90;;;0.80;;
32138;SDS011;18644;48.700;9.210;2023-12-14T03:30:36;1.60;;;1.02;;
32138;SDS011;18644;48.700;9.210;2023-12-14T03:33:04;1.67;;;0.95;;
32138;SDS011;18644;48.700;9.210;2023-12-14T03:35:32;1.55;;;0.95;;
32138;SDS011;18644;48.700;9.210;2023-12-14T03:37:59;1.20;;;1.10;;
32138;SDS011;18644;48.700;9.210;2023-12-14T03:40:26;1.05;;;0.95;;
32138;SDS011;18644;48.700;9.210;2023-12-14T03:42:53;1.20;;;1.10;;
32138;SDS011;18644;48.700;9.210;2023-12-14T03:45:20;3.10;;;1.50;;
32138;SDS011;18644;48.700;9.210;2023-12-14T03:47:47;1.40;;;1.30;;
32138;SDS011;18644;48.700;9.210;2023-12-14T03:50:15;2.17;;;1.15;;
32138;SDS011;18644;48.700;9.210;2023-12-14T03:52:42;2.50;;;1.48;;
32138;SDS011;18644;48.700;9.210;2023-12-14T03:55:10;1.30;;;1.20;;
32138;SDS011;18644;48.700;9.210;2023-12-14T03:57:36;1.40;;;1.30;;
32138;SDS011;18644;48.700;9.210;2023-12-14T04:00:04;1.88;;;1.20;;
32138;SDS011;18644;48.700;9.210;2023-12-14T04:02:35;0.93;;;0.93;;
32138;SDS011;18644;48.700;9.210;2023-12-14T04:05:02;1.33;;;1.23;;
32138;SDS011;18644;48.700;9.210;2023-12-14T04:07:31;1.15;;;1.00;;
32138;SDS011;18644;48.700;9.210;2023-12-14T04:09:58;1.75;;;1.05;;
32138;SDS011;18644;48.700;9.210;2023-12-14T04:12:25;1.20;;;1.10;;
32138;SDS011;18644;48.700;9.210;2023-12-14T04:14:51;1.42;;;1.20;;
32138;SDS011;18644;48.700;9.210;2023-12-14T04:17:18;1.20;;;1.10;;
32138;SDS011;18644;48.700;9.210;2023-12-14T04:19:45;3.42;;;1.30;;
32138;SDS011;18644;48.700;9.210;2023-12-14T04:22:12;1.23;;;1.10;;
32138;SDS011;18644;48.700;9.210;2023-12-14T04:24:40;1.90;;;1.20;;
32138;SDS011;18644;48.700;9.210;2023-12-14T04:27:07;1.42;;;1.20;;
32138;SDS011;18644;48.700;9.210;2023-12-14T04:29:34;2.65;;;1.50;;
32138;SDS011;18644;48.700;9.210;2023-12-14T04:32:01;1.40;;;1.30;;
32138;SDS011;18644;48.700;9.210;2023-12-14T04:34:28;3.20;;;1.85;;
32138;SDS011;18644;48.700;9.210;2023-12-14T04:36:55;1.40;;;1.30;;
32138;SDS011;18644;48.700;9.210;2023-12-14T04:39:22;1.40;;;1.30;;
32138;SDS011;18644;48.700;9.210;2023-12-14T04:41:51;1.02;;;0.93;;
32138;SDS011;18644;48.700;9.210;2023-12-14T04:44:18;1.65;;;1.20;;
32138;SDS011;18644;48.700;9.210;2023-12-14T04:46:46;4.60;;;1.50;;
32138;SDS011;18644;48.700;9.210;2023-12-14T04:49:13;1.58;;;1.42;;
32138;SDS011;18644;48.700;9.210;2023-12-14T04:51:40;1.90;;;1.35;;
32138;SDS011;18644;48.700;9.210;2023-12-14T04:54:07;3.35;;;1.92;;
32138;SDS011;18644;48.700;9.210;2023-12-14T04:56:35;2.65;;;1.50;;
32138;SDS011;18644;48.700;9.210;2023-12-14T04:59:03;2.85;;;1.60;;
32138;SDS011;18644;48.700;9.210;2023-12-14T05:01:30;1.63;;;1.50;;
32138;SDS011;18644;48.700;9.210;2023-12-14T05:03:56;1.90;;;1.50;;
32138;SDS011;18644;48.700;9.210;2023-12-14T05:06:23;1.60;;;1.50;;
32138;SDS011;18644;48.700;9.210;2023-12-14T05:08:51;1.60;;;1.50;;
32138;SDS011;18644;48.700;9.210;2023-12-14T05:11:18;2.13;;;1.92;;
32138;SDS011;18644;48.700;9.210;2023-12-14T05:13:44;2.28;;;1.58;;
32138;SDS011;18644;48.700;9.210;2023-12-14T05:16:13;2.17;;;1.80;;
32138;SDS011;18644;48.700;9.210;2023-12-14T05:18:41;2.95;;;1.45;;
32138;SDS011;18644;48.700;9.210;2023-12-14T05:21:08;2.63;;;1.60;;
32138;SDS011;18644;48.700;9.210;2023-12-14T05:23:35;4.63;;;1.77;;
32138;SDS011;18644;48.700;9.210;2023-12-14T05:26:02;1.63;;;1.52;;
32138;SDS011;18644;48.700;9.210;2023-12-14T05:28:29;3.13;;;1.50;;
32138;SDS011;18644;48.700;9.210;2023-12-14T05:30:56;1.63;;;1.42;;
32138;SDS011;18644;48.700;9.210;2023-12-14T05:33:24;1.42;;;1.33;;
32138;SDS011;18644;48.700;9.210;2023-12-14T05:35:51;1.60;;;1.33;;
32138;SDS011;18644;48.700;9.210;2023-12-14T05:38:19;2.90;;;1.20;;
32138;SDS011;18644;48.700;9.210;2023-12-14T05:40:45;3.17;;;1.58;;
32138;SDS011;18644;48.700;9.210;2023-12-14T05:43:12;1.70;;;1.42;;
32138;SDS011;18644;48.700;9.210;2023-12-14T05:45:39;2.42;;;1.30;;
32138;SDS011;18644;48.700;9.210;2023-12-14T05:48:06;1.35;;;1.25;;
32138;SDS011;18644;48.700;9.210;2023-12-14T05:50:34;2.08;;;1.60;;
32138;SDS011;18644;48.700;9.210;2023-12-14T05:53:01;2.10;;;1.60;;
32138;SDS011;18644;48.700;9.210;2023-12-14T05:55:28;2.20;;;1.63;;
32138;SDS011;18644;48.700;9.210;2023-12-14T05:57:55;2.72;;;2.03;;
32138;SDS011;18644;48.700;9.210;2023-12-14T06:00:22;1.38;;;1.27;;
32138;SDS011;18644;48.700;9.210;2023-12-14T06:02:49;1.88;;;1.50;;
32138;SDS011;18644;48.700;9.210;2023-12-14T06:05:16;1.92;;;1.73;;
32138;SDS011;18644;48.700;9.210;2023-12-14T06:07:44;2.88;;;1.63;;
32138;SDS011;18644;48.700;9.210;2023-12-14T06:10:11;1.80;;;1.60;;
32138;SDS011;18644;48.700;9.210;2023-12-14T06:12:38;5.05;;;3.00;;
32138;SDS011;18644;48.700;9.210;2023-12-14T06:15:06;7.18;;;4.85;;
32138;SDS011;18644;48.700;9.210;2023-12-14T06:17:35;5.20;;;3.47;;
32138;SDS011;18644;48.700;9.210;2023-12-14T06:20:04;3.58;;;2.72;;
32138;SDS011;18644;48.700;9.210;2023-12-14T06:22:33;2.80;;;2.22;;
32138;SDS011;18644;48.700;9.210;2023-12-14T06:25:04;3.55;;;2.13;;
32138;SDS011;18644;48.700;9.210;2023-12-14T06:27:32;7.07;;;2.38;;
32138;SDS011;18644;48.700;9.210;2023-12-14T06:29:59;3.88;;;2.17;;
32138;SDS011;18644;48.700;9.210;2023-12-14T06:32:26;5.03;;;2.17;;
32138;SDS011;18644;48.700;9.210;2023-12-14T06:34:54;1.85;;;1.75;;
32138;SDS011;18644;48.700;9.210;2023-12-14T06:37:21;3.13;;;2.40;;
32138;SDS011;18644;48.700;9.210;2023-12-14T06:39:48;2.25;;;1.88;;
32138;SDS011;18644;48.700;9.210;2023-12-14T06:42:16;1.70;;;1.58;;
32138;SDS011;18644;48.700;9.210;2023-12-14T06:44:43;2.80;;;1.88;;
32138;SDS011;18644;48.700;9.210;2023-12-14T06:47:09;2.60;;;1.50;;
32138;SDS011;18644;48.700;9.210;2023-12-14T06:49:38;2.95;;;1.40;;
32138;SDS011;18644;48.700;9.210;2023-12-14T06:52:06;3.28;;;1.30;;
32138;SDS011;18644;48.700;9.210;2023-12-14T06:54:33;1.45;;;1.20;;
32138;SDS011;18644;48.700;9.210;2023-12-14T06:57:00;1.60;;;1.25;;
32138;SDS011;18644;48.700;9.210;2023-12-14T06:59:29;1.55;;;1.45;;
32138;SDS011;18644;48.700;9.210;2023-12-14T07:01:56;1.35;;;1.25;;
32138;SDS011;18644;48.700;9.210;2023-12-14T07:04:22;1.75;;;1.58;;
32138;SDS011;18644;48.700;9.210;2023-12-14T07:06:50;1.90;;;1.60;;
32138;SDS011;18644;48.700;9.210;2023-12-14T07:09:17;2.60;;;1.90;;
32138;SDS011;18644;48.700;9.210;2023-12-14T07:11:44;2.33;;;1.80;;
32138;SDS011;18644;48.700;9.210;2023-12-14T07:14:11;1.45;;;1.35;;
32138;SDS011;18644;48.700;9.210;2023-12-14T07:16:41;1.55;;;1.30;;
32138;SDS011;18644;48.700;9.210;2023-12-14T07:19:08;2.33;;;1.67;;
32138;SDS011;18644;48.700;9.210;2023-12-14T07:21:35;2.80;;;1.48;;
32138;SDS011;18644;48.700;9.210;2023-12-14T07:24:02;2.65;;;1.80;;
32138;SDS011;18644;48.700;9.210;2023-12-14T07:26:30;1.73;;;1.50;;
32138;SDS011;18644;48.700;9.210;2023-12-14T07:28:57;1.90;;;1.35;;
32138;SDS011;18644;48.700;9.210;2023-12-14T07:31:23;2.75;;;1.90;;
32138;SDS011;18644;48.700;9.210;2023-12-14T07:33:54;4.80;;;2.10;;
32138;SDS011;18644;48.700;9.210;2023-12-14T07:36:21;3.42;;;2.35;;
32138;SDS011;18644;48.700;9.210;2023-12-14T07:38:48;4.20;;;3.05;;
32138;SDS011;18644;48.700;9.210;2023-12-14T07:41:15;6.22;;;3.78;;
32138;SDS011;18644;48.700;9.210;2023-12-14T07:43:42;4.13;;;2.78;;
32138;SDS011;18644;48.700;9.210;2023-12-14T07:46:09;3.05;;;2.30;;
32138;SDS011;18644;48.700;9.210;2023-12-14T07:48:35;3.80;;;2.33;;
32138;SDS011;18644;48.700;9.210;2023-12-14T07:51:04;3.20;;;2.08;;
32138;SDS011;18644;48.700;9.210;2023-12-14T07:53:31;1.88;;;1.50;;
32138;SDS011;18644;48.700;9.210;2023-12-14T07:55:58;4.07;;;2.13;;
32138;SDS011;18644;48.700;9.210;2023-12-14T07:58:27;2.50;;;1.92;;
32138;SDS011;18644;48.700;9.210;2023-12-14T08:00:54;2.45;;;1.55;;
32138;SDS011;18644;48.700;9.210;2023-12-14T08:03:21;3.10;;;1.70;;
32138;SDS011;18644;48.700;9.210;2023-12-14T08:05:48;2.30;;;1.70;;
32138;SDS011;18644;48.700;9.210;2023-12-14T08:08:16;1.70;;;1.60;;
32138;SDS011;18644;48.700;9.210;2023-12-14T08:10:43;2.75;;;1.60;;
32138;SDS011;18644;48.700;9.210;2023-12-14T08:13:10;1.90;;;1.70;;
32138;SDS011;18644;48.700;9.210;2023-12-14T08:15:37;2.55;;;1.88;;
32138;SDS011;18644;48.700;9.210;2023-12-14T08:18:04;2.38;;;1.60;;
32138;SDS011;18644;48.700;9.210;2023-12-14T08:20:31;4.07;;;1.80;;
32138;SDS011;18644;48.700;9.210;2023-12-14T08:22:58;3.40;;;2.13;;
32138;SDS011;18644;48.700;9.210;2023-12-14T08:25:26;2.97;;;1.50;;
32138;SDS011;18644;48.700;9.210;2023-12-14T08:27:53;1.80;;;1.38;;
32138;SDS011;18644;48.700;9.210;2023-12-14T08:30:20;1.75;;;1.45;;
32138;SDS011;18644;48.700;9.210;2023-12-14T08:32:48;6.75;;;3.55;;
32138;SDS011;18644;48.700;9.210;2023-12-14T08:35:16;6.05;;;3.30;;
32138;SDS011;18644;48.700;9.210;2023-12-14T08:37:43;7.28;;;3.53;;
32138;SDS011;18644;48.700;9.210;2023-12-14T08:40:11;4.28;;;2.63;;
32138;SDS011;18644;48.700;9.210;2023-12-14T08:42:39;3.22;;;2.50;;
32138;SDS011;18644;48.700;9.210;2023-12-14T08:45:07;2.35;;;2.15;;
32138;SDS011;18644;48.700;9.210;2023-12-14T08:47:37;2.42;;;1.90;;
32138;SDS011;18644;48.700;9.210;2023-12-14T08:50:04;2.03;;;1.70;;
32138;SDS011;18644;48.700;9.210;2023-12-14T08:52:33;1.83;;;1.65;;
32138;SDS011;18644;48.700;9.210;2023-12-14T08:55:00;5.32;;;4.03;;
32138;SDS011;18644;48.700;9.210;2023-12-14T08:57:28;3.75;;;3.35;;
32138;SDS011;18644;48.700;9.210;2023-12-14T08:59:57;4.47;;;3.20;;
32138;SDS011;18644;48.700;9.210;2023-12-14T09:02:24;5.13;;;3.55;;
32138;SDS011;18644;48.700;9.210;2023-12-14T09:04:51;2.40;;;2.20;;
32138;SDS011;18644;48.700;9.210;2023-12-14T09:07:18;3.90;;;2.45;;
32138;SDS011;18644;48.700;9.210;2023-12-14T09:09:45;2.17;;;1.70;;
32138;SDS011;18644;48.700;9.210;2023-12-14T09:12:12;2.20;;;1.75;;
32138;SDS011;18644;48.700;9.210;2023-12-14T09:14:38;3.72;;;2.05;;
32138;SDS011;18644;48.700;9.210;2023-12-14T09:17:07;2.80;;;2.28;;
32138;SDS011;18644;48.700;9.210;2023-12-14T09:19:34;5.63;;;2.67;;
32138;SDS011;18644;48.700;9.210;2023-12-14T09:22:01;2.92;;;2.30;;
32138;SDS011;18644;48.700;9.210;2023-12-14T09:24:28;3.15;;;2.50;;
32138;SDS011;18644;48.700;9.210;2023-12-14T09:26:55;2.85;;;2.30;;
32138;SDS011;18644;48.700;9.210;2023-12-14T09:29:22;3.75;;;2.47;;
32138;SDS011;18644;48.700;9.210;2023-12-14T09:31:49;4.72;;;2.15;;
32138;SDS011;18644;48.700;9.210;2023-12-14T09:34:17;3.80;;;2.20;;
32138;SDS011;18644;48.700;9.210;2023-12-14T09:36:44;2.65;;;2.22;;
32138;SDS011;18644;48.700;9.210;2023-12-14T09:39:11;2.45;;;2.13;;
32138;SDS011;18644;48.700;9.210;2023-12-14T09:41:40;2.33;;;2.13;;
32138;SDS011;18644;48.700;9.210;2023-12-14T09:44:07;4.28;;;2.63;;
32138;SDS011;18644;48.700;9.210;2023-12-14T09:46:34;2.60;;;2.22;;
32138;SDS011;18644;48.700;9.210;2023-12-14T09:49:04;3.15;;;2.47;;
32138;SDS011;18644;48.700;9.210;2023-12-14T09:51:32;3.40;;;2.40;;
32138;SDS011;18644;48.700;9.210;2023-12-14T09:53:59;5.20;;;3.05;;
32138;SDS011;18644;48.700;9.210;2023-12-14T09:56:25;4.18;;;2.95;;
32138;SDS011;18644;48.700;9.210;2023-12-14T09:58:53;4.03;;;2.35;;
32138;SDS011;18644;48.700;9.210;2023-12-14T10:01:20;3.55;;;2.72;;
32138;SDS011;18644;48.700;9.210;2023-12-14T10:03:49;2.33;;;2.13;;
32138;SDS011;18644;48.700;9.210;2023-12-14T10:06:17;3.33;;;2.40;;
32138;SDS011;18644;48.700;9.210;2023-12-14T10:08:54;3.28;;;2.28;;
32138;SDS011;18644;48.700;9.210;2023-12-14T10:11:22;3.70;;;3.03;;
32138;SDS011;18644;48.700;9.210;2023-12-14T10:13:49;4.90;;;2.92;;
32138;SDS011;18644;48.700;9.210;2023-12-14T10:16:26;3.35;;;2.70;;
32138;SDS011;18644;48.700;9.210;2023-12-14T10:18:55;2.97;;;2.55;;
32138;SDS011;18644;48.700;9.210;2023-12-14T10:21:23;3.30;;;2.80;;
32138;SDS011;18644;48.700;9.210;2023-12-14T10:23:50;4.53;;;3.30;;
32138;SDS011;18644;48.700;9.210;2023-12-14T10:26:19;4.63;;;3.65;;
32138;SDS011;18644;48.700;9.210;2023-12-14T10:28:49;4.20;;;3.40;;
32138;SDS011;18644;48.700;9.210;2023-12-14T10:31:17;4.53;;;3.40;;
32138;SDS011;18644;48.700;9.210;2023-12-14T10:33:44;5.05;;;3.03;;
32138;SDS011;18644;48.700;9.210;2023-12-14T10:36:12;4.00;;;3.15;;
32138;SDS011;18644;48.700;9.210;2023-12-14T10:38:40;4.22;;;3.47;;
32138;SDS011;18644;48.700;9.210;2023-12-14T10:41:10;5.50;;;3.92;;
32138;SDS011;18644;48.700;9.210;2023-12-14T10:43:41;4.05;;;3.33;;
32138;SDS011;18644;48.700;9.210;2023-12-14T10:46:09;3.92;;;2.88;;
32138;SDS011;18644;48.700;9.210;2023-12-14T10:48:37;4.40;;;2.70;;
32138;SDS011;18644;48.700;9.210;2023-12-14T10:51:07;2.88;;;2.10;;
32138;SDS011;18644;48.700;9.210;2023-12-14T10:53:35;3.97;;;1.88;;
32138;SDS011;18644;48.700;9.210;2023-12-14T10:56:03;3.95;;;2.28;;
32138;SDS011;18644;48.700;9.210;2023-12-14T11:01:13;3.03;;;1.88;;
32138;SDS011;18644;48.700;9.210;2023-12-14T11:03:42;3.50;;;1.90;;
32138;SDS011;18644;48.700;9.210;2023-12-14T11:06:20;3.67;;;2.45;;
32138;SDS011;18644;48.700;9.210;2023-12-14T11:08:52;5.25;;;2.30;;
32138;SDS011;18644;48.700;9.210;2023-12-14T11:11:22;3.20;;;2.53;;
32138;SDS011;18644;48.700;9.210;2023-12-14T11:13:52;2.55;;;2.20;;
32138;SDS011;18644;48.700;9.210;2023-12-14T11:16:19;2.88;;;2.30;;
32138;SDS011;18644;48.700;9.210;2023-12-14T11:18:47;3.65;;;2.72;;
32138;SDS011;18644;48.700;9.210;2023-12-14T11:21:17;2.63;;;2.30;;
32138;SDS011;18644;48.700;9.210;2023-12-14T11:23:47;2.40;;;2.15;;
32138;SDS011;18644;48.700;9.210;2023-12-14T11:26:20;2.85;;;2.05;;
32138;SDS011;18644;48.700;9.210;2023-12-14T11:28:49;5.78;;;2.78;;
32138;SDS011;18644;48.700;9.210;2023-12-14T11:31:18;3.05;;;2.35;;
32138;SDS011;18644;48.700;9.210;2023-12-14T11:33:45;2.67;;;1.83;;
32138;SDS011;18644;48.700;9.210;2023-12-14T11:36:13;3.72;;;2.13;;
32138;SDS011;18644;48.700;9.210;2023-12-14T11:38:40;3.33;;;2.30;;
32138;SDS011;18644;48.700;9.210;2023-12-14T11:41:08;5.32;;;2.50;;
32138;SDS011;18644;48.700;9.210;2023-12-14T11:43:41;4.18;;;2.33;;
32138;SDS011;18644;48.700;9.210;2023-12-14T11:46:11;4.47;;;2.38;;
32138;SDS011;18644;48.700;9.210;2023-12-14T11:48:38;3.85;;;1.98;;
32138;SDS011;18644;48.700;9.210;2023-12-14T11:51:06;4.30;;;2.10;;
32138;SDS011;18644;48.700;9.210;2023-12-14T11:53:33;4.07;;;2.42;;
32138;SDS011;18644;48.700;9.210;2023-12-14T11:56:04;3.22;;;1.77;;
32138;SDS011;18644;48.700;9.210;2023-12-14T11:58:32;3.35;;;1.73;;
32138;SDS011;18644;48.700;9.210;2023-12-14T12:01:11;2.78;;;1.50;;
32138;SDS011;18644;48.700;9.210;2023-12-14T12:03:39;3.92;;;2.03;;
32138;SDS011;18644;48.700;9.210;2023-12-14T12:06:07;3.22;;;1.40;;
32138;SDS011;18644;48.700;9.210;2023-12-14T12:08:40;1.95;;;1.80;;
32138;SDS011;18644;48.700;9.210;2023-12-14T12:11:08;1.95;;;1.52;;
32138;SDS011;18644;48.700;9.210;2023-12-14T12:13:35;2.10;;;1.17;;
32138;SDS011;18644;48.700;9.210;2023-12-14T12:16:01;1.65;;;1.20;;
32138;SDS011;18644;48.700;9.210;2023-12-14T12:18:30;1.83;;;0.90;;
32138;SDS011;18644;48.700;9.210;2023-12-14T12:20:57;2.03;;;1.20;;
32138;SDS011;18644;48.700;9.210;2023-12-14T12:23:28;0.80;;;0.80;;
32138;SDS011;18644;48.700;9.210;2023-12-14T12:25:55;3.42;;;1.33;;
32138;SDS011;18644;48.700;9.210;2023-12-14T12:28:22;1.98;;;0.90;;
32138;SDS011;18644;48.700;9.210;2023-12-14T12:30:49;1.45;;;1.33;;
32138;SDS011;18644;48.700;9.210;2023-12-14T12:33:16;2.70;;;1.00;;
32138;SDS011;18644;48.700;9.210;2023-12-14T12:35:44;1.98;;;1.08;;
32138;SDS011;18644;48.700;9.210;2023-12-14T12:38:11;1.25;;;0.80;;
32138;SDS011;18644;48.700;9.210;2023-12-14T12:40:37;2.30;;;1.50;;
32138;SDS011;18644;48.700;9.210;2023-12-14T12:43:04;1.33;;;1.10;;
32138;SDS011;18644;48.700;9.210;2023-12-14T12:45:31;1.90;;;1.70;;
32138;SDS011;18644;48.700;9.210;2023-12-14T12:48:00;1.85;;;1.38;;
32138;SDS011;18644;48.700;9.210;2023-12-14T12:50:29;1.83;;;1.25;;
32138;SDS011;18644;48.700;9.210;2023-12-14T12:52:57;1.67;;;1.52;;
32138;SDS011;18644;48.700;9.210;2023-12-14T12:55:24;1.50;;;1.17;;
32138;SDS011;18644;48.700;9.210;2023-12-14T12:57:51;2.58;;;1.48;;
32138;SDS011;18644;48.700;9.210;2023-12-14T13:00:19;1.25;;;1.15;;
32138;SDS011;18644;48.700;9.210;2023-12-14T13:02:46;2.83;;;1.20;;
32138;SDS011;18644;48.700;9.210;2023-12-14T13:05:13;1.30;;;1.20;;
32138;SDS011;18644;48.700;9.210;2023-12-14T13:07:43;1.00;;;0.90;;
32138;SDS011;18644;48.700;9.210;2023-12-14T13:12:40;1.10;;;1.00;;
32138;SDS011;18644;48.700;9.210;2023-12-14T13:15:07;1.52;;;1.10;;
32138;SDS011;18644;48.700;9.210;2023-12-14T13:17:35;1.65;;;1.20;;
32138;SDS011;18644;48.700;9.210;2023-12-14T13:20:02;3.03;;;1.30;;
32138;SDS011;18644;48.700;9.210;2023-12-14T13:22:31;1.45;;;1.23;;
32138;SDS011;18644;48.700;9.210;2023-12-14T13:24:58;1.33;;;1.23;;
32138;SDS011;18644;48.700;9.210;2023-12-14T13:27:26;1.95;;;1.00;;
32138;SDS011;18644;48.700;9.210;2023-12-14T13:29:53;4.53;;;1.52;;
32138;SDS011;18644;48.700;9.210;2023-12-14T13:32:20;1.80;;;0.95;;
32138;SDS011;18644;48.700;9.210;2023-12-14T13:34:47;1.00;;;0.95;;
32138;SDS011;18644;48.700;9.210;2023-12-14T13:37:14;1.25;;;0.95;;
32138;SDS011;18644;48.700;9.210;2023-12-14T13:39:40;1.45;;;0.80;;
32138;SDS011;18644;48.700;9.210;2023-12-14T13:42:08;1.13;;;0.95;;
32138;SDS011;18644;48.700;9.210;2023-12-14T13:44:36;1.23;;;0.90;;
32138;SDS011;18644;48.700;9.210;2023-12-14T13:47:03;1.42;;;1.20;;
32138;SDS011;18644;48.700;9.210;2023-12-14T13:49:30;1.10;;;1.00;;
32138;SDS011;18644;48.700;9.210;2023-12-14T13:51:57;1.05;;;0.93;;
32138;SDS011;18644;48.700;9.210;2023-12-14T13:54:24;1.38;;;1.05;;
32138;SDS011;18644;48.700;9.210;2023-12-14T13:56:51;2.10;;;1.38;;
32138;SDS011;18644;48.700;9.210;2023-12-14T13:59:18;1.75;;;1.27;;
32138;SDS011;18644;48.700;9.210;2023-12-14T14:01:47;1.52;;;1.27;;
32138;SDS011;18644;48.700;9.210;2023-12-14T14:04:15;1.58;;;1.35;;
32138;SDS011;18644;48.700;9.210;2023-12-14T14:06:42;3.95;;;2.03;;
32138;SDS011;18644;48.700;9.210;2023-12-14T14:09:09;3.25;;;1.60;;
32138;SDS011;18644;48.700;9.210;2023-12-14T14:11:37;1.65;;;1.55;;
32138;SDS011;18644;48.700;9.210;2023-12-14T14:14:06;2.75;;;1.40;;
32138;SDS011;18644;48.700;9.210;2023-12-14T14:16:33;2.25;;;1.50;;
32138;SDS011;18644;48.700;9.210;2023-12-14T14:19:01;2.53;;;1.40;;
32138;SDS011;18644;48.700;9.210;2023-12-14T14:21:28;2.30;;;1.55;;
32138;SDS011;18644;48.700;9.210;2023-12-14T14:23:55;1.90;;;1.35;;
32138;SDS011;18644;48.700;9.210;2023-12-14T14:26:22;2.47;;;1.80;;
32138;SDS011;18644;48.700;9.210;2023-12-14T14:28:49;2.03;;;1.40;;
32138;SDS011;18644;48.700;9.210;2023-12-14T14:31:16;1.60;;;1.42;;
32138;SDS011;18644;48.700;9.210;2023-12-14T14:33:42;3.88;;;2.50;;
32138;SDS011;18644;48.700;9.210;2023-12-14T14:36:13;2.92;;;2.20;;
32138;SDS011;18644;48.700;9.210;2023-12-14T14:38:40;2.28;;;2.00;;
32138;SDS011;18644;48.700;9.210;2023-12-14T14:41:08;3.13;;;2.15;;
32138;SDS011;18644;48.700;9.210;2023-12-14T14:43:35;3.22;;;2.38;;
32138;SDS011;18644;48.700;9.210;2023-12-14T14:46:02;5.90;;;2.85;;
32138;SDS011;18644;48.700;9.210;2023-12-14T14:48:29;6.13;;;4.55;;
32138;SDS011;18644;48.700;9.210;2023-12-14T14:50:55;4.68;;;3.40;;
32138;SDS011;18644;48.700;9.210;2023-12-14T14:53:24;4.82;;;3.28;;
32138;SDS011;18644;48.700;9.210;2023-12-14T14:55:51;4.30;;;3.08;;